Time;durP1;ratioP1;P1;durP2;ratioP2;P2;SDS_P1;SDS_P2;PMS_P1;PMS_P2;Temp;Humidity;BMP_temperature;BMP_pressure;BME280_temperature;BME280_humidity;BME280_pressure;Samples;Min_cycle;Max_cycle;Signal;HPM_P1;HPM_P2
2024/03/06 00:01:57;;;;;;;;;;;5.90;99.90;;;;;;4959799;28;19914;-78
2024/03/06 00:04:23;;;;;;;;;;;5.80;99.90;;;;;;4966940;28;20249;-78
2024/03/06 00:06:51;;;;;;;;;;;5.90;99.90;;;;;;4962381;28;20423;-79
2024/03/06 00:09:18;;;;;;;;;;;5.80;99.90;;;;;;4961307;28;19914;-78
2024/03/06 00:11:44;;;;;;;;;;;5.80;99.90;;;;;;4990989;28;19918;-78
2024/03/06 00:14:12;;;;;;;;;;;5.90;99.90;;;;;;4958874;28;19941;-78
2024/03/06 00:16:38;;;;;;;;;;;5.80;99.90;;;;;;4959367;28;20356;-78
2024/03/06 00:19:04;;;;;;;;;;;5.90;99.90;;;;;;4979967;28;19968;-78
2024/03/06 00:21:29;;;;;;;;;;;5.90;99.90;;;;;;4979122;28;19913;-78
2024/03/06 00:23:55;;;;;;;;;;;5.90;99.90;;;;;;4946427;28;19929;-78
2024/03/06 00:26:21;;;;;;;;;;;5.90;99.90;;;;;;4978663;28;19917;-78
2024/03/06 00:28:47;;;;;;;;;;;5.80;99.90;;;;;;4994003;28;19914;-78
2024/03/06 00:31:12;;;;;;;;;;;5.80;99.90;;;;;;4977748;28;19923;-78
2024/03/06 00:33:39;;;;;;;;;;;5.90;99.90;;;;;;4945484;28;20350;-79
2024/03/06 00:36:05;;;;;;;;;;;5.90;99.90;;;;;;4942953;28;20382;-79
2024/03/06 00:38:31;;;;;;;;;;;5.90;99.90;;;;;;4977994;28;19922;-79
2024/03/06 00:40:57;;;;;;;;;;;5.90;99.90;;;;;;4978653;28;20638;-79
2024/03/06 00:43:23;;;;;;;;;;;5.90;99.90;;;;;;4977562;28;19932;-79
2024/03/06 00:45:49;;;;;;;;;;;5.90;99.90;;;;;;4986251;28;19925;-78
2024/03/06 00:48:14;;;;;;;;;;;5.90;99.90;;;;;;4994238;28;19924;-79
2024/03/06 00:50:40;;;;;;;;;;;5.90;99.90;;;;;;4978083;28;20008;-78
2024/03/06 00:53:06;;;;;;;;;;;5.90;99.90;;;;;;4978182;28;19918;-79
2024/03/06 00:55:32;;;;;;;;;;;5.90;99.90;;;;;;4978447;28;20753;-78
2024/03/06 00:57:57;;;;;;;;;;;5.90;99.90;;;;;;4995598;28;19917;-78
2024/03/06 01:00:23;;;;;;;;;;;5.90;99.90;;;;;;4994473;28;20004;-79
2024/03/06 01:02:48;;;;;;;;;;;5.90;99.90;;;;;;4970566;28;19944;-78
2024/03/06 01:05:14;;;;;;;;;;;5.90;99.90;;;;;;4978334;28;19918;-78
2024/03/06 01:07:39;;;;;;;;;;;5.90;99.90;;;;;;4978574;28;19980;-78
2024/03/06 01:10:08;;;;;;;;;;;5.90;99.90;;;;;;4948021;28;19915;-78
2024/03/06 01:12:34;;;;;;;;;;;5.90;99.90;;;;;;4976438;28;19996;-78
2024/03/06 01:14:59;;;;;;;;;;;5.90;99.90;;;;;;4960481;28;20632;-78
2024/03/06 01:17:25;;;;;;;;;;;5.90;99.90;;;;;;4977928;28;19965;-78
2024/03/06 01:19:51;;;;;;;;;;;5.90;99.90;;;;;;4994898;28;19918;-78
2024/03/06 01:22:18;;;;;;;;;;;5.90;99.90;;;;;;4978683;28;19944;-78
2024/03/06 01:24:44;;;;;;;;;;;5.90;99.90;;;;;;4977825;28;20339;-78
2024/03/06 01:27:09;;;;;;;;;;;5.90;99.90;;;;;;4994886;28;19964;-77
2024/03/06 01:29:35;;;;;;;;;;;5.80;99.90;;;;;;4977740;28;20244;-77
2024/03/06 01:32:01;;;;;;;;;;;5.80;99.90;;;;;;4978080;28;20323;-77
2024/03/06 01:34:26;;;;;;;;;;;5.80;99.90;;;;;;4978038;28;20020;-78
2024/03/06 01:36:52;;;;;;;;;;;5.80;99.90;;;;;;4978006;28;20377;-77
2024/03/06 01:39:18;;;;;;;;;;;5.80;99.90;;;;;;4977468;28;20008;-78
2024/03/06 01:41:47;;;;;;;;;;;5.80;99.90;;;;;;4990518;28;19914;-77
2024/03/06 01:44:13;;;;;;;;;;;5.80;99.90;;;;;;4965282;28;19921;-78
2024/03/06 01:46:39;;;;;;;;;;;5.80;99.90;;;;;;4975443;28;19913;-78
2024/03/06 01:49:04;;;;;;;;;;;5.80;99.90;;;;;;4962267;28;20358;-78
2024/03/06 01:51:31;;;;;;;;;;;5.80;99.90;;;;;;4962484;28;20349;-78
2024/03/06 01:53:57;;;;;;;;;;;5.80;99.90;;;;;;4978462;28;19918;-77
2024/03/06 01:56:22;;;;;;;;;;;5.80;99.90;;;;;;4981768;28;19965;-78
2024/03/06 01:58:48;;;;;;;;;;;5.80;99.90;;;;;;4981621;28;19921;-78
2024/03/06 02:01:14;;;;;;;;;;;5.80;99.90;;;;;;4981839;28;19928;-78
2024/03/06 02:03:41;;;;;;;;;;;5.80;99.90;;;;;;4981476;28;20020;-77
2024/03/06 02:06:06;;;;;;;;;;;5.80;99.90;;;;;;4997250;28;20008;-77
2024/03/06 02:08:32;;;;;;;;;;;5.70;99.90;;;;;;4965659;28;20107;-78
2024/03/06 02:11:02;;;;;;;;;;;5.80;99.90;;;;;;4960787;28;20359;-77
2024/03/06 02:13:27;;;;;;;;;;;5.70;99.90;;;;;;4965176;28;19914;-78
2024/03/06 02:15:53;;;;;;;;;;;5.70;99.90;;;;;;4964034;28;19914;-77
2024/03/06 02:18:19;;;;;;;;;;;5.80;99.90;;;;;;4948688;28;19917;-77
2024/03/06 02:20:45;;;;;;;;;;;5.70;99.90;;;;;;4981108;28;20042;-77
2024/03/06 02:23:11;;;;;;;;;;;5.80;99.90;;;;;;4963477;28;19929;-77
2024/03/06 02:25:37;;;;;;;;;;;5.80;99.90;;;;;;4931448;28;19918;-77
2024/03/06 02:28:02;;;;;;;;;;;5.80;99.90;;;;;;4961751;28;19918;-78
2024/03/06 02:30:30;;;;;;;;;;;5.80;99.90;;;;;;4935656;28;19914;-77
2024/03/06 02:32:56;;;;;;;;;;;5.70;99.90;;;;;;4929696;28;20247;-77
2024/03/06 02:35:22;;;;;;;;;;;5.70;99.90;;;;;;4961177;28;19918;-77
2024/03/06 02:37:48;;;;;;;;;;;5.70;99.90;;;;;;4945545;28;19921;-77
2024/03/06 02:40:14;;;;;;;;;;;5.70;99.90;;;;;;4976812;28;19922;-77
2024/03/06 02:42:40;;;;;;;;;;;5.70;99.90;;;;;;4960900;28;19918;-77
2024/03/06 02:45:06;;;;;;;;;;;5.70;99.90;;;;;;4960852;28;19914;-77
2024/03/06 02:47:32;;;;;;;;;;;5.70;99.90;;;;;;4929082;28;20328;-77
2024/03/06 02:49:57;;;;;;;;;;;5.70;99.90;;;;;;4942033;29;20036;-78
2024/03/06 02:52:23;;;;;;;;;;;5.70;99.90;;;;;;4938290;28;19981;-77
2024/03/06 02:54:49;;;;;;;;;;;5.60;99.90;;;;;;4960014;28;19918;-77
2024/03/06 02:57:14;;;;;;;;;;;5.60;99.90;;;;;;4944188;28;19918;-77
2024/03/06 02:59:40;;;;;;;;;;;5.60;99.90;;;;;;4976903;28;19957;-77
2024/03/06 03:02:06;;;;;;;;;;;5.60;99.90;;;;;;4977676;28;20399;-77
2024/03/06 03:04:32;;;;;;;;;;;5.60;99.90;;;;;;4960373;28;20025;-77
2024/03/06 03:06:57;;;;;;;;;;;5.60;99.90;;;;;;4959400;28;19948;-77
2024/03/06 03:09:23;;;;;;;;;;;5.60;99.90;;;;;;4960740;28;19926;-77
2024/03/06 03:11:49;;;;;;;;;;;5.60;99.90;;;;;;4960684;28;19984;-77
2024/03/06 03:14:15;;;;;;;;;;;5.60;99.90;;;;;;4977105;28;20054;-77
2024/03/06 03:16:41;;;;;;;;;;;5.60;99.90;;;;;;4976316;28;20368;-77
2024/03/06 03:19:10;;;;;;;;;;;5.60;99.90;;;;;;4941999;28;19921;-77
2024/03/06 03:21:36;;;;;;;;;;;5.60;99.90;;;;;;4940881;28;19941;-77
2024/03/06 03:24:03;;;;;;;;;;;5.60;99.90;;;;;;4955884;28;19930;-77
2024/03/06 03:26:28;;;;;;;;;;;5.50;99.90;;;;;;4963796;28;20065;-77
2024/03/06 03:28:55;;;;;;;;;;;5.60;99.90;;;;;;4942025;28;20346;-77
2024/03/06 03:31:22;;;;;;;;;;;5.50;99.90;;;;;;4947879;28;19914;-77
2024/03/06 03:33:48;;;;;;;;;;;5.50;99.90;;;;;;4963472;28;20295;-77
2024/03/06 03:36:14;;;;;;;;;;;5.50;99.90;;;;;;4963341;28;20122;-77
2024/03/06 03:38:42;;;;;;;;;;;5.50;99.90;;;;;;4977740;28;19918;-78
2024/03/06 03:41:08;;;;;;;;;;;5.50;99.90;;;;;;4979757;28;19929;-77
2024/03/06 03:43:34;;;;;;;;;;;5.50;99.90;;;;;;4963007;28;19971;-78
2024/03/06 03:45:59;;;;;;;;;;;5.50;99.90;;;;;;4962654;28;19918;-77
2024/03/06 03:48:25;;;;;;;;;;;5.50;99.90;;;;;;4942974;28;19957;-78
2024/03/06 03:50:51;;;;;;;;;;;5.50;99.90;;;;;;4972215;28;19949;-78
2024/03/06 03:53:16;;;;;;;;;;;5.50;99.90;;;;;;4994998;28;19925;-77
2024/03/06 03:55:42;;;;;;;;;;;5.50;99.90;;;;;;4988034;28;19921;-78
2024/03/06 03:58:08;;;;;;;;;;;5.50;99.90;;;;;;4962666;28;19917;-77
2024/03/06 04:00:33;;;;;;;;;;;5.50;99.90;;;;;;4971432;28;20318;-77
2024/03/06 04:02:59;;;;;;;;;;;5.50;99.90;;;;;;4968682;28;20327;-77
2024/03/06 04:05:25;;;;;;;;;;;5.50;99.90;;;;;;4978653;28;19948;-77
2024/03/06 04:07:51;;;;;;;;;;;5.50;99.90;;;;;;4970507;28;20330;-77
2024/03/06 04:10:16;;;;;;;;;;;5.50;99.90;;;;;;4998006;28;19965;-77
2024/03/06 04:12:43;;;;;;;;;;;5.50;99.90;;;;;;4946764;28;20366;-77
2024/03/06 04:15:09;;;;;;;;;;;5.50;99.90;;;;;;4959879;28;19929;-77
2024/03/06 04:17:37;;;;;;;;;;;5.50;99.90;;;;;;4962600;28;19914;-77
2024/03/06 04:20:05;;;;;;;;;;;5.50;99.90;;;;;;4979207;28;20045;-78
2024/03/06 04:22:31;;;;;;;;;;;5.50;99.90;;;;;;4945502;28;19920;-77
2024/03/06 04:24:58;;;;;;;;;;;5.50;99.90;;;;;;4994398;28;19921;-78
2024/03/06 04:27:25;;;;;;;;;;;5.50;99.90;;;;;;4978166;28;19924;-78
2024/03/06 04:29:50;;;;;;;;;;;5.50;99.90;;;;;;4978233;28;20315;-78
2024/03/06 04:32:16;;;;;;;;;;;5.50;99.90;;;;;;4961615;28;19933;-78
2024/03/06 04:34:42;;;;;;;;;;;5.50;99.90;;;;;;4965787;28;19956;-78
2024/03/06 04:37:07;;;;;;;;;;;5.50;99.90;;;;;;4943143;28;20009;-78
2024/03/06 04:39:33;;;;;;;;;;;5.50;99.90;;;;;;4943521;28;19949;-78
2024/03/06 04:41:58;;;;;;;;;;;5.50;99.90;;;;;;4939598;28;20330;-78
2024/03/06 04:44:24;;;;;;;;;;;5.50;99.90;;;;;;4967478;28;19953;-78
2024/03/06 04:46:50;;;;;;;;;;;5.50;99.90;;;;;;4962508;28;19917;-78
2024/03/06 04:49:16;;;;;;;;;;;5.50;99.90;;;;;;4943285;28;19922;-78
2024/03/06 04:51:41;;;;;;;;;;;5.40;99.90;;;;;;4962100;28;20358;-78
2024/03/06 04:54:08;;;;;;;;;;;5.40;99.90;;;;;;4945402;28;20281;-78
2024/03/06 04:56:34;;;;;;;;;;;5.40;99.90;;;;;;4961368;28;19917;-78
2024/03/06 04:59:02;;;;;;;;;;;5.40;99.90;;;;;;4977679;28;20008;-78
2024/03/06 05:01:29;;;;;;;;;;;5.40;99.90;;;;;;4975279;28;19948;-78
2024/03/06 05:03:55;;;;;;;;;;;5.40;99.90;;;;;;4961383;28;19936;-78
2024/03/06 05:06:22;;;;;;;;;;;5.40;99.90;;;;;;4993108;28;19917;-79
2024/03/06 05:08:47;;;;;;;;;;;5.40;99.90;;;;;;4961815;28;19914;-78
2024/03/06 05:11:13;;;;;;;;;;;5.40;99.90;;;;;;4977865;28;19917;-77
2024/03/06 05:13:39;;;;;;;;;;;5.40;99.90;;;;;;4961673;28;19918;-78
2024/03/06 05:16:05;;;;;;;;;;;5.40;99.90;;;;;;4958451;28;19918;-78
2024/03/06 05:18:34;;;;;;;;;;;5.30;99.90;;;;;;4960223;28;19996;-78
2024/03/06 05:20:59;;;;;;;;;;;5.40;99.90;;;;;;4959110;28;20016;-78
2024/03/06 05:23:25;;;;;;;;;;;5.30;99.90;;;;;;4961538;28;20001;-76
2024/03/06 05:25:51;;;;;;;;;;;5.30;99.90;;;;;;4962384;28;20001;-77
2024/03/06 05:28:16;;;;;;;;;;;5.30;99.90;;;;;;4961970;28;20315;-77
2024/03/06 05:30:42;;;;;;;;;;;5.30;99.90;;;;;;4980586;28;19925;-77
2024/03/06 05:33:07;;;;;;;;;;;5.20;99.90;;;;;;4965547;28;19939;-77
2024/03/06 05:35:33;;;;;;;;;;;5.30;99.90;;;;;;4981369;28;19918;-77
2024/03/06 05:37:59;;;;;;;;;;;5.30;99.90;;;;;;4981498;28;19920;-78
2024/03/06 05:40:24;;;;;;;;;;;5.30;99.90;;;;;;4961504;28;19933;-77
2024/03/06 05:42:51;;;;;;;;;;;5.30;99.90;;;;;;4942118;28;19922;-78
2024/03/06 05:45:17;;;;;;;;;;;5.30;99.90;;;;;;4965097;28;19917;-78
2024/03/06 05:47:43;;;;;;;;;;;5.30;99.90;;;;;;4965537;28;19922;-78
2024/03/06 05:50:10;;;;;;;;;;;5.30;99.90;;;;;;4961717;28;19944;-77
2024/03/06 05:52:36;;;;;;;;;;;5.30;99.90;;;;;;4980483;28;19948;-77
2024/03/06 05:55:02;;;;;;;;;;;5.30;99.90;;;;;;4954227;28;20675;-77
2024/03/06 05:57:29;;;;;;;;;;;5.30;99.90;;;;;;4930897;28;19929;-77
2024/03/06 05:59:55;;;;;;;;;;;5.30;99.90;;;;;;4996081;28;19918;-77
2024/03/06 06:02:22;;;;;;;;;;;5.20;99.90;;;;;;4980502;28;19925;-77
2024/03/06 06:04:47;;;;;;;;;;;5.20;99.90;;;;;;4996547;28;19918;-77
2024/03/06 06:07:13;;;;;;;;;;;5.20;99.90;;;;;;4980140;28;19940;-79
2024/03/06 06:09:39;;;;;;;;;;;5.20;99.90;;;;;;4945502;28;19996;-78
2024/03/06 06:12:04;;;;;;;;;;;5.20;99.90;;;;;;4958553;28;19913;-78
2024/03/06 06:14:30;;;;;;;;;;;5.20;99.90;;;;;;4965225;28;19918;-78
2024/03/06 06:16:56;;;;;;;;;;;5.20;99.90;;;;;;4980918;28;20000;-79
2024/03/06 06:19:21;;;;;;;;;;;5.20;99.90;;;;;;4949125;28;19922;-78
2024/03/06 06:21:47;;;;;;;;;;;5.20;99.90;;;;;;4964831;28;19913;-78
2024/03/06 06:24:13;;;;;;;;;;;5.20;99.90;;;;;;4985651;28;20330;-78
2024/03/06 06:26:39;;;;;;;;;;;5.20;99.90;;;;;;4964513;28;20343;-78
2024/03/06 06:29:04;;;;;;;;;;;5.20;99.90;;;;;;4979661;28;20004;-79
2024/03/06 06:31:30;;;;;;;;;;;5.20;99.90;;;;;;4950723;28;19914;-79
2024/03/06 06:33:56;;;;;;;;;;;5.20;99.90;;;;;;4929256;28;19914;-78
2024/03/06 06:36:21;;;;;;;;;;;5.20;99.90;;;;;;4991122;28;19977;-79
2024/03/06 06:38:47;;;;;;;;;;;5.20;99.90;;;;;;4995452;28;19914;-78
2024/03/06 06:41:13;;;;;;;;;;;5.20;99.90;;;;;;4959795;28;19926;-78
2024/03/06 06:43:40;;;;;;;;;;;5.20;99.90;;;;;;4945375;28;20500;-78
2024/03/06 06:46:06;;;;;;;;;;;5.20;99.90;;;;;;4994818;28;19924;-78
2024/03/06 06:48:33;;;;;;;;;;;5.20;99.90;;;;;;5000042;28;20254;-79
2024/03/06 06:51:00;;;;;;;;;;;5.20;99.90;;;;;;4974110;28;19921;-78
2024/03/06 06:53:26;;;;;;;;;;;5.20;99.90;;;;;;4944916;28;20327;-78
2024/03/06 06:55:52;;;;;;;;;;;5.20;99.90;;;;;;4945474;28;19925;-78
2024/03/06 06:58:17;;;;;;;;;;;5.20;99.90;;;;;;4967407;28;19917;-78
2024/03/06 07:00:43;;;;;;;;;;;5.20;99.90;;;;;;4957025;28;19932;-78
2024/03/06 07:03:09;;;;;;;;;;;5.20;99.90;;;;;;4960527;28;19928;-78
2024/03/06 07:05:34;;;;;;;;;;;5.20;99.90;;;;;;4995909;28;19944;-78
2024/03/06 07:08:00;;;;;;;;;;;5.10;99.90;;;;;;4996033;28;19921;-78
2024/03/06 07:10:26;;;;;;;;;;;5.10;99.90;;;;;;4980081;28;19914;-77
2024/03/06 07:12:52;;;;;;;;;;;5.10;99.90;;;;;;4980311;28;20383;-77
2024/03/06 07:15:17;;;;;;;;;;;5.20;99.90;;;;;;4979716;28;19918;-77
2024/03/06 07:17:43;;;;;;;;;;;5.20;99.90;;;;;;4996616;28;20521;-77
2024/03/06 07:20:10;;;;;;;;;;;5.20;99.90;;;;;;4980869;28;19926;-77
2024/03/06 07:22:35;;;;;;;;;;;5.20;99.90;;;;;;4980171;28;19983;-77
2024/03/06 07:25:05;;;;;;;;;;;5.30;99.90;;;;;;4976169;28;19930;-77
2024/03/06 07:27:32;;;;;;;;;;;5.30;99.90;;;;;;4943220;28;19914;-77
2024/03/06 07:29:57;;;;;;;;;;;5.30;99.90;;;;;;4959758;28;19921;-77
2024/03/06 07:32:23;;;;;;;;;;;5.40;99.90;;;;;;4944039;28;19922;-77
2024/03/06 07:34:49;;;;;;;;;;;5.40;99.90;;;;;;4960126;28;19937;-77
2024/03/06 07:37:14;;;;;;;;;;;5.40;99.90;;;;;;4960251;28;19918;-77
2024/03/06 07:39:40;;;;;;;;;;;5.40;99.90;;;;;;4977376;28;19929;-77
2024/03/06 07:42:06;;;;;;;;;;;5.40;99.90;;;;;;4960518;28;19918;-77
2024/03/06 07:44:32;;;;;;;;;;;5.40;99.90;;;;;;4948304;29;19915;-77
2024/03/06 07:46:57;;;;;;;;;;;5.50;99.90;;;;;;4940035;28;20635;-77
2024/03/06 07:49:23;;;;;;;;;;;5.50;99.90;;;;;;4944019;28;20270;-77
2024/03/06 07:51:49;;;;;;;;;;;5.60;99.90;;;;;;4944140;28;19914;-77
2024/03/06 07:54:14;;;;;;;;;;;5.60;99.90;;;;;;4976484;28;19921;-77
2024/03/06 07:56:40;;;;;;;;;;;5.60;99.90;;;;;;4974942;28;19914;-77
2024/03/06 07:59:05;;;;;;;;;;;5.70;99.90;;;;;;4947048;28;20367;-77
2024/03/06 08:01:32;;;;;;;;;;;5.70;99.90;;;;;;4940818;28;20399;-77
2024/03/06 08:03:58;;;;;;;;;;;5.70;99.90;;;;;;4924948;28;19926;-77
2024/03/06 08:06:25;;;;;;;;;;;5.80;99.90;;;;;;4943628;28;19914;-77
2024/03/06 08:08:51;;;;;;;;;;;5.80;99.90;;;;;;4940610;29;19915;-76
2024/03/06 08:11:17;;;;;;;;;;;5.90;99.90;;;;;;4928175;28;20053;-77
2024/03/06 08:13:43;;;;;;;;;;;5.90;99.90;;;;;;4943845;28;20025;-76
2024/03/06 08:16:08;;;;;;;;;;;5.90;99.90;;;;;;4960334;28;19925;-76
2024/03/06 08:18:34;;;;;;;;;;;6.00;99.90;;;;;;4948962;29;19915;-76
2024/03/06 08:21:01;;;;;;;;;;;6.10;99.90;;;;;;4950641;28;19926;-76
2024/03/06 08:23:27;;;;;;;;;;;6.10;99.90;;;;;;4967017;28;20017;-76
2024/03/06 08:25:52;;;;;;;;;;;6.10;99.90;;;;;;4973534;28;20368;-76
2024/03/06 08:28:18;;;;;;;;;;;6.20;99.90;;;;;;4975467;28;19918;-76
2024/03/06 08:30:44;;;;;;;;;;;6.20;99.90;;;;;;4988388;28;19924;-76
2024/03/06 08:33:10;;;;;;;;;;;6.30;99.90;;;;;;4962912;28;19917;-76
2024/03/06 08:35:36;;;;;;;;;;;6.30;99.90;;;;;;4958992;28;19914;-76
2024/03/06 08:38:02;;;;;;;;;;;6.30;99.90;;;;;;4959630;28;19918;-77
2024/03/06 08:40:28;;;;;;;;;;;6.40;99.90;;;;;;4959299;28;19922;-77
2024/03/06 08:42:54;;;;;;;;;;;6.40;99.90;;;;;;4949714;28;19933;-76
2024/03/06 08:45:20;;;;;;;;;;;6.50;99.90;;;;;;4946895;28;20406;-76
2024/03/06 08:47:45;;;;;;;;;;;6.50;99.90;;;;;;4963314;28;20008;-77
2024/03/06 08:50:11;;;;;;;;;;;6.60;99.90;;;;;;4979374;28;19921;-76
2024/03/06 08:52:37;;;;;;;;;;;6.60;99.90;;;;;;4963380;28;19925;-76
2024/03/06 08:55:05;;;;;;;;;;;6.60;99.90;;;;;;4972271;28;20860;-76
2024/03/06 08:57:32;;;;;;;;;;;6.70;99.90;;;;;;4973029;28;19918;-76
2024/03/06 08:59:58;;;;;;;;;;;6.70;99.90;;;;;;4968580;28;19922;-76
2024/03/06 09:02:23;;;;;;;;;;;6.80;99.90;;;;;;4994357;28;19922;-77
2024/03/06 09:04:51;;;;;;;;;;;6.90;99.90;;;;;;4977965;28;19956;-75
2024/03/06 09:07:17;;;;;;;;;;;6.90;99.90;;;;;;4979092;28;20289;-76
2024/03/06 09:09:43;;;;;;;;;;;6.90;99.90;;;;;;4962745;28;20125;-76
2024/03/06 09:12:12;;;;;;;;;;;7.00;99.90;;;;;;4973934;28;19926;-76
2024/03/06 09:14:37;;;;;;;;;;;7.00;99.90;;;;;;4994593;28;20354;-75
2024/03/06 09:17:03;;;;;;;;;;;7.00;99.90;;;;;;4985126;28;19922;-76
2024/03/06 09:19:29;;;;;;;;;;;7.10;99.90;;;;;;4952701;28;19914;-76
2024/03/06 09:21:55;;;;;;;;;;;7.10;99.90;;;;;;4947826;28;20247;-76
2024/03/06 09:24:22;;;;;;;;;;;7.20;99.90;;;;;;4958919;28;19934;-76
2024/03/06 09:26:48;;;;;;;;;;;7.20;99.90;;;;;;4964838;28;20331;-76
2024/03/06 09:29:14;;;;;;;;;;;7.30;99.90;;;;;;4978486;28;20576;-76
2024/03/06 09:31:40;;;;;;;;;;;7.30;99.90;;;;;;4963074;28;19914;-76
2024/03/06 09:34:05;;;;;;;;;;;7.40;99.90;;;;;;4945593;28;19918;-76
2024/03/06 09:36:32;;;;;;;;;;;7.40;99.90;;;;;;4972337;28;19914;-76
2024/03/06 09:39:04;;;;;;;;;;;7.50;99.90;;;;;;4970386;28;19929;-76
2024/03/06 09:41:30;;;;;;;;;;;7.70;99.90;;;;;;4962677;28;19922;-76
2024/03/06 09:43:56;;;;;;;;;;;7.80;99.90;;;;;;4962372;28;19921;-76
2024/03/06 09:46:23;;;;;;;;;;;7.90;99.90;;;;;;4978188;28;19914;-76
2024/03/06 09:48:48;;;;;;;;;;;8.00;99.90;;;;;;4978228;28;19917;-76
2024/03/06 09:51:14;;;;;;;;;;;8.10;99.90;;;;;;4977506;28;19914;-76
2024/03/06 09:53:40;;;;;;;;;;;8.10;99.90;;;;;;4960840;28;20972;-76
2024/03/06 09:56:08;;;;;;;;;;;8.10;99.90;;;;;;4993489;28;19914;-76
2024/03/06 09:58:35;;;;;;;;;;;8.10;99.90;;;;;;4999607;28;19940;-76
2024/03/06 10:01:03;;;;;;;;;;;8.00;99.90;;;;;;4975190;28;19918;-76
2024/03/06 10:03:28;;;;;;;;;;;8.10;99.90;;;;;;4976191;28;20319;-76
2024/03/06 10:05:55;;;;;;;;;;;8.30;99.90;;;;;;4977406;28;19928;-76
2024/03/06 10:08:21;;;;;;;;;;;8.40;99.90;;;;;;4977357;28;19945;-76
2024/03/06 10:10:48;;;;;;;;;;;8.50;99.90;;;;;;4945442;28;19913;-76
2024/03/06 10:13:16;;;;;;;;;;;8.60;99.90;;;;;;4993419;28;19921;-76
2024/03/06 10:15:41;;;;;;;;;;;8.70;99.90;;;;;;4946738;28;20591;-76
2024/03/06 10:18:19;;;;;;;;;;;8.90;99.90;;;;;;4980320;28;19953;-75
2024/03/06 10:20:44;;;;;;;;;;;8.80;99.90;;;;;;4986881;28;19929;-75
2024/03/06 10:23:10;;;;;;;;;;;8.90;99.90;;;;;;4974370;28;19926;-75
2024/03/06 10:25:36;;;;;;;;;;;9.10;99.90;;;;;;4945970;28;19921;-76
2024/03/06 10:28:13;;;;;;;;;;;9.40;99.90;;;;;;4944836;28;19925;-76
2024/03/06 10:30:43;;;;;;;;;;;9.50;99.90;;;;;;4978849;28;19918;-76
2024/03/06 10:33:10;;;;;;;;;;;9.70;99.90;;;;;;4932376;28;19929;-76
2024/03/06 10:35:38;;;;;;;;;;;9.90;99.90;;;;;;4945859;28;20247;-76
2024/03/06 10:38:04;;;;;;;;;;;10.00;99.90;;;;;;4930251;28;20315;-76
2024/03/06 10:40:31;;;;;;;;;;;10.10;99.90;;;;;;4939932;29;19926;-76
2024/03/06 10:42:59;;;;;;;;;;;10.20;99.90;;;;;;4957350;28;19925;-77
2024/03/06 10:45:27;;;;;;;;;;;10.40;99.90;;;;;;4933619;28;19918;-79
2024/03/06 10:47:52;;;;;;;;;;;10.50;99.90;;;;;;4969579;28;19918;-80
2024/03/06 10:50:18;;;;;;;;;;;10.60;99.90;;;;;;4949742;28;19976;-80
2024/03/06 10:52:46;;;;;;;;;;;11.00;99.90;;;;;;4948899;28;19918;-80
2024/03/06 10:55:12;;;;;;;;;;;11.30;99.90;;;;;;4973667;28;19918;-79
2024/03/06 10:57:39;;;;;;;;;;;11.60;99.90;;;;;;4947961;29;19973;-80
2024/03/06 11:00:06;;;;;;;;;;;11.80;99.90;;;;;;4929557;29;19919;-79
2024/03/06 11:02:37;;;;;;;;;;;12.10;99.90;;;;;;4954210;28;19914;-79
2024/03/06 11:05:05;;;;;;;;;;;12.40;99.90;;;;;;4947523;28;20364;-80
2024/03/06 11:07:30;;;;;;;;;;;12.70;99.90;;;;;;4947503;28;19913;-80
2024/03/06 11:09:58;;;;;;;;;;;12.80;99.90;;;;;;4946131;28;19925;-79
2024/03/06 11:12:38;;;;;;;;;;;13.20;99.90;;;;;;4962578;28;19961;-79
2024/03/06 11:15:13;;;;;;;;;;;13.60;99.90;;;;;;4934910;28;19933;-79
2024/03/06 11:17:39;;;;;;;;;;;13.90;99.90;;;;;;4942544;29;19922;-79
2024/03/06 11:20:09;;;;;;;;;;;14.10;99.90;;;;;;4944935;28;19919;-81
2024/03/06 11:22:54;;;;;;;;;;;14.10;99.90;;;;;;4931140;28;19929;-80
2024/03/06 11:25:38;;;;;;;;;;;14.20;99.90;;;;;;4980689;28;20008;-81
2024/03/06 11:28:04;;;;;;;;;;;14.30;99.90;;;;;;4979221;28;20335;-81
2024/03/06 11:30:30;;;;;;;;;;;14.30;99.90;;;;;;4963731;28;19914;-81
2024/03/06 11:33:02;;;;;;;;;;;14.40;99.90;;;;;;4979872;28;19924;-81
2024/03/06 11:35:28;;;;;;;;;;;14.60;99.90;;;;;;4962509;28;20008;-81
2024/03/06 11:37:54;;;;;;;;;;;14.80;99.90;;;;;;4961480;28;19960;-81
2024/03/06 11:40:27;;;;;;;;;;;15.00;99.90;;;;;;4945988;28;19922;-81
2024/03/06 11:42:53;;;;;;;;;;;14.90;99.20;;;;;;4964106;28;19914;-81
2024/03/06 11:45:22;;;;;;;;;;;15.10;99.00;;;;;;4980011;28;19925;-82
2024/03/06 11:47:57;;;;;;;;;;;15.20;99.70;;;;;;4980802;28;19914;-82
2024/03/06 11:50:23;;;;;;;;;;;15.30;99.50;;;;;;4964823;28;20124;-80
2024/03/06 11:52:49;;;;;;;;;;;15.50;98.90;;;;;;4965157;28;20287;-82
2024/03/06 11:55:15;;;;;;;;;;;15.60;97.40;;;;;;4965078;28;19913;-81
2024/03/06 11:57:42;;;;;;;;;;;15.70;97.80;;;;;;4948544;28;20038;-82
2024/03/06 12:00:08;;;;;;;;;;;15.80;98.30;;;;;;4964562;28;19937;-82
2024/03/06 12:02:36;;;;;;;;;;;16.00;98.50;;;;;;4948052;28;19957;-81
2024/03/06 12:05:02;;;;;;;;;;;16.20;97.70;;;;;;4960055;28;19913;-82
2024/03/06 12:07:28;;;;;;;;;;;16.10;95.60;;;;;;4995799;28;19972;-82
2024/03/06 12:09:54;;;;;;;;;;;16.20;96.60;;;;;;4954517;28;20649;-81
2024/03/06 12:12:19;;;;;;;;;;;16.30;97.10;;;;;;4956902;28;20600;-80
2024/03/06 12:14:55;;;;;;;;;;;16.40;94.90;;;;;;4979346;28;19972;-80
2024/03/06 12:17:20;;;;;;;;;;;16.30;94.90;;;;;;4978335;28;19921;-80
2024/03/06 12:19:46;;;;;;;;;;;16.30;95.60;;;;;;4929078;28;19914;-81
2024/03/06 12:22:12;;;;;;;;;;;16.40;95.50;;;;;;4979861;28;19965;-82
2024/03/06 12:24:38;;;;;;;;;;;16.50;95.40;;;;;;4943156;28;19926;-83
2024/03/06 12:27:04;;;;;;;;;;;16.70;94.50;;;;;;4959339;28;20350;-82
2024/03/06 12:29:32;;;;;;;;;;;16.80;93.50;;;;;;4959852;28;19914;-82
2024/03/06 12:31:58;;;;;;;;;;;16.80;93.70;;;;;;4958660;28;19914;-82
2024/03/06 12:34:23;;;;;;;;;;;16.90;93.30;;;;;;4940276;28;19977;-82
2024/03/06 12:36:49;;;;;;;;;;;16.80;93.10;;;;;;4961765;28;19918;-83
2024/03/06 12:39:20;;;;;;;;;;;16.90;92.20;;;;;;4961864;28;19928;-83
2024/03/06 12:41:46;;;;;;;;;;;17.00;93.20;;;;;;4928200;28;19922;-81
2024/03/06 12:44:12;;;;;;;;;;;17.10;92.30;;;;;;4961957;28;19925;-81
2024/03/06 12:46:38;;;;;;;;;;;17.20;92.90;;;;;;4962274;28;19950;-81
2024/03/06 12:49:03;;;;;;;;;;;17.20;91.60;;;;;;4961723;28;19918;-81
2024/03/06 12:51:29;;;;;;;;;;;17.30;91.30;;;;;;4962392;28;19914;-81
2024/03/06 12:53:54;;;;;;;;;;;17.50;91.70;;;;;;4971536;28;19929;-82
2024/03/06 12:56:20;;;;;;;;;;;17.60;91.20;;;;;;4949663;28;20445;-82
2024/03/06 12:58:46;;;;;;;;;;;17.40;88.50;;;;;;4929273;28;20004;-82
2024/03/06 13:01:15;;;;;;;;;;;17.50;90.00;;;;;;4975513;28;19933;-82
2024/03/06 13:03:40;;;;;;;;;;;17.70;89.60;;;;;;4946752;29;19918;-83
2024/03/06 13:06:06;;;;;;;;;;;17.90;89.90;;;;;;4956632;28;19918;-83
2024/03/06 13:08:32;;;;;;;;;;;18.30;89.60;;;;;;4941582;29;19919;-83
2024/03/06 13:10:58;;;;;;;;;;;18.40;89.50;;;;;;4957777;29;20750;-83
2024/03/06 13:13:24;;;;;;;;;;;18.60;87.40;;;;;;4941327;29;19978;-83
2024/03/06 13:15:50;;;;;;;;;;;18.70;87.20;;;;;;4927938;29;19914;-83
2024/03/06 13:18:16;;;;;;;;;;;18.80;88.20;;;;;;4939037;28;19914;-83
2024/03/06 13:20:42;;;;;;;;;;;19.20;86.90;;;;;;4943943;28;19928;-83
2024/03/06 13:23:08;;;;;;;;;;;19.00;84.10;;;;;;4940446;29;20593;-82
2024/03/06 13:25:33;;;;;;;;;;;19.10;84.60;;;;;;4956094;28;19922;-82
2024/03/06 13:28:02;;;;;;;;;;;19.10;85.50;;;;;;4961064;28;20675;-83
2024/03/06 13:30:28;;;;;;;;;;;19.20;84.80;;;;;;4941655;29;19918;-83
2024/03/06 13:32:54;;;;;;;;;;;18.50;83.70;;;;;;4967056;28;19946;-82
2024/03/06 13:35:19;;;;;;;;;;;18.50;83.20;;;;;;4958963;28;20016;-82
2024/03/06 13:37:46;;;;;;;;;;;18.20;84.80;;;;;;4951683;28;19914;-82
2024/03/06 13:40:13;;;;;;;;;;;18.00;83.40;;;;;;4958517;28;20228;-81
2024/03/06 13:42:39;;;;;;;;;;;17.60;85.40;;;;;;4942949;28;19961;-80
2024/03/06 13:45:04;;;;;;;;;;;17.30;83.50;;;;;;4975008;28;19933;-80
2024/03/06 13:47:30;;;;;;;;;;;16.80;86.50;;;;;;4924226;29;19918;-81
2024/03/06 13:49:56;;;;;;;;;;;16.40;85.70;;;;;;4958762;28;19922;-82
2024/03/06 13:52:23;;;;;;;;;;;16.10;88.40;;;;;;4978420;28;20004;-81
2024/03/06 13:54:49;;;;;;;;;;;16.00;88.60;;;;;;4942832;29;19918;-81
2024/03/06 13:57:15;;;;;;;;;;;16.10;89.10;;;;;;4958979;28;19926;-81
2024/03/06 13:59:41;;;;;;;;;;;16.10;87.50;;;;;;4945629;28;20272;-82
2024/03/06 14:02:08;;;;;;;;;;;16.10;87.40;;;;;;4955477;28;19918;-81
2024/03/06 14:04:34;;;;;;;;;;;16.10;90.10;;;;;;4946035;28;19930;-81
2024/03/06 14:07:00;;;;;;;;;;;16.40;89.80;;;;;;4959153;28;20617;-82
2024/03/06 14:09:26;;;;;;;;;;;16.40;89.70;;;;;;4945830;28;19978;-82
2024/03/06 14:11:52;;;;;;;;;;;16.50;89.80;;;;;;4966662;28;19917;-82
2024/03/06 14:14:18;;;;;;;;;;;16.60;90.50;;;;;;4969320;28;19918;-81
2024/03/06 14:16:44;;;;;;;;;;;16.70;90.20;;;;;;4978444;28;19918;-82
2024/03/06 14:19:10;;;;;;;;;;;17.00;88.90;;;;;;4962976;28;19969;-82
2024/03/06 14:21:36;;;;;;;;;;;17.30;89.10;;;;;;4946634;28;19918;-81